EGJB

Guernsey Airport

Saint Peter Port, Guernsey
METAR EGJB 152050Z 35010KT 320V020 9999 FEW021 BKN027 07/02 Q1011
Observed Flight Rules
Dec-15 @ 20:50 UTC (3 hours ago) Marginal Visual Flight Rules
Wind Visibility Clouds
350° at 10 knots 10,000+ meters
  • Few at 2,100' AGL
  • Broken at 2,700' AGL
Temperatures Readings
Current 7°C / 45°F
Dewpoint 2°C / 36°F
Humidity 71%
Altimeter 29.85" Hg
Pressure 1011 hPa
Elevation 102
METAR EGJB 152050Z 35010KT 320V020 9999 FEW021 BKN027 07/02 Q1011
Observed Flight Rules
Dec-15 @ 20:50 UTC
(3 hours ago)
MVFR
Wind Visibility
350° at 10 knots 10,000+ meters
Clouds
  • Few at 2,100' AGL
  • Broken at 2,700' AGL
Temperature Dewpoint
7°C / 45°F 2°C / 36°F
Humidity Altimeter Pressure
71% 29.85" Hg 1011 hPa